createdAt,value
2023-01-29T00:01:57.451Z,-5.09
2023-01-29T00:04:24.254Z,-4.96
2023-01-29T00:06:50.970Z,-4.97
2023-01-29T00:09:17.875Z,-4.90
2023-01-29T00:11:44.924Z,-5.20
2023-01-29T00:14:11.566Z,-5.05
2023-01-29T00:16:38.228Z,-5.02
2023-01-29T00:19:05.422Z,-5.01
2023-01-29T00:21:32.302Z,-5.25
2023-01-29T00:24:00.099Z,-5.19
2023-01-29T00:26:27.604Z,-5.18
2023-01-29T00:28:55.279Z,-5.03
2023-01-29T00:31:24.126Z,-5.37
2023-01-29T00:33:51.168Z,-5.30
2023-01-29T00:36:20.081Z,-5.45
2023-01-29T00:38:58.457Z,-5.44
2023-01-29T00:41:49.263Z,-5.28
2023-01-29T00:44:34.597Z,-5.28
2023-01-29T00:47:01.772Z,-5.49
2023-01-29T00:49:30.111Z,-5.54
2023-01-29T00:52:16.706Z,-5.48
2023-01-29T00:54:43.347Z,-5.66
2023-01-29T00:57:09.974Z,-5.46
2023-01-29T00:59:37.850Z,-5.57
2023-01-29T01:02:23.085Z,-5.58
2023-01-29T01:04:49.754Z,-5.42
2023-01-29T01:07:16.585Z,-5.39
2023-01-29T01:10:02.039Z,-5.73
2023-01-29T01:12:31.740Z,-5.55
2023-01-29T01:14:58.363Z,-5.52
2023-01-29T01:17:25.109Z,-5.79
2023-01-29T01:19:51.915Z,-5.72
2023-01-29T01:22:18.885Z,-5.60
2023-01-29T01:24:45.558Z,-5.61
2023-01-29T01:27:12.844Z,-6.01
2023-01-29T01:29:39.522Z,-6.01
2023-01-29T01:32:06.422Z,-5.66
2023-01-29T01:34:33.150Z,-5.77
2023-01-29T01:37:00.764Z,-5.99
2023-01-29T01:39:27.548Z,-5.88
2023-01-29T01:41:55.127Z,-5.97
2023-01-29T01:44:49.814Z,-5.78
2023-01-29T01:47:20.111Z,-5.95
2023-01-29T01:49:47.571Z,-6.02
2023-01-29T01:52:17.955Z,-6.12
2023-01-29T01:54:44.934Z,-6.15
2023-01-29T01:57:18.408Z,-5.91
2023-01-29T01:59:52.378Z,-5.96
2023-01-29T02:02:38.721Z,-5.69
2023-01-29T02:05:24.770Z,-5.96
2023-01-29T02:08:10.472Z,-5.90
2023-01-29T02:10:48.575Z,-5.83
2023-01-29T02:13:17.813Z,-6.21
2023-01-29T02:15:48.811Z,-5.89
2023-01-29T02:18:17.791Z,-6.22
2023-01-29T02:20:57.230Z,-6.12
2023-01-29T02:23:52.411Z,-6.21
2023-01-29T02:26:38.051Z,-5.93
2023-01-29T02:29:23.121Z,-6.00
2023-01-29T02:32:30.618Z,-6.02
2023-01-29T02:35:46.640Z,-6.39
2023-01-29T02:38:24.443Z,-5.87
2023-01-29T02:40:57.421Z,-5.92
2023-01-29T02:43:59.009Z,-5.97
2023-01-29T02:46:34.676Z,-6.05
2023-01-29T02:49:16.011Z,-5.91
2023-01-29T02:51:49.804Z,-6.16
2023-01-29T02:54:55.330Z,-5.98
2023-01-29T02:57:29.288Z,-5.97
2023-01-29T03:00:00.320Z,-6.10
2023-01-29T03:02:51.182Z,-6.00
2023-01-29T03:05:26.225Z,-6.38
2023-01-29T03:08:00.489Z,-6.28
2023-01-29T03:10:51.092Z,-6.00
2023-01-29T03:13:40.641Z,-6.22
2023-01-29T03:16:27.057Z,-5.99
2023-01-29T03:19:18.909Z,-6.19
2023-01-29T03:22:01.214Z,-6.17
2023-01-29T03:24:56.270Z,-6.20
2023-01-29T03:27:48.008Z,-6.13
2023-01-29T03:30:35.225Z,-6.03
2023-01-29T03:33:27.859Z,-5.99
2023-01-29T03:36:00.838Z,-5.83
2023-01-29T03:38:29.786Z,-6.13
2023-01-29T03:41:03.359Z,-6.21
2023-01-29T03:43:37.015Z,-6.16
2023-01-29T03:46:19.130Z,-6.23
2023-01-29T03:48:59.360Z,-6.31
2023-01-29T03:51:53.523Z,-6.01
2023-01-29T03:54:48.054Z,-5.95
2023-01-29T03:57:42.982Z,-6.05
2023-01-29T04:00:41.058Z,-5.99
2023-01-29T04:03:07.902Z,-6.02
2023-01-29T04:05:42.708Z,-6.20
2023-01-29T04:08:25.112Z,-6.15
2023-01-29T04:10:57.298Z,-6.17
2023-01-29T04:13:25.176Z,-6.06
2023-01-29T04:15:58.291Z,-6.16
2023-01-29T04:18:48.259Z,-6.36
2023-01-29T04:21:16.503Z,-6.13
2023-01-29T04:23:43.799Z,-6.12
2023-01-29T04:26:42.544Z,-6.07
2023-01-29T04:29:38.451Z,-6.07
2023-01-29T04:32:38.796Z,-6.12
2023-01-29T04:35:11.956Z,-6.13
2023-01-29T04:37:47.603Z,-6.18
2023-01-29T04:40:31.785Z,-6.18
2023-01-29T04:43:09.907Z,-6.28
2023-01-29T04:45:39.692Z,-6.14
2023-01-29T04:48:12.307Z,-6.23
2023-01-29T04:50:46.939Z,-6.83
2023-01-29T04:53:24.265Z,-6.26
2023-01-29T04:56:06.307Z,-6.26
2023-01-29T04:58:39.497Z,-6.35
2023-01-29T05:01:09.669Z,-6.30
2023-01-29T05:03:39.220Z,-6.47
2023-01-29T05:06:09.704Z,-6.29
2023-01-29T05:08:39.135Z,-6.40
2023-01-29T05:11:06.304Z,-6.21
2023-01-29T05:13:39.441Z,-6.16
2023-01-29T05:16:09.369Z,-6.16
2023-01-29T05:18:36.324Z,-6.39
2023-01-29T05:21:07.430Z,-6.24
2023-01-29T05:23:34.486Z,-6.17
2023-01-29T05:26:01.229Z,-6.40
2023-01-29T05:28:27.816Z,-6.51
2023-01-29T05:30:56.864Z,-6.65
2023-01-29T05:33:23.463Z,-6.33
2023-01-29T05:35:50.567Z,-6.39
2023-01-29T05:38:19.254Z,-6.61
2023-01-29T05:40:46.649Z,-6.46
2023-01-29T05:43:19.556Z,-6.57
2023-01-29T05:45:57.576Z,-6.63
2023-01-29T05:48:24.762Z,-6.63
2023-01-29T05:50:51.921Z,-6.78
2023-01-29T05:53:18.546Z,-6.60
2023-01-29T05:55:48.168Z,-6.20
2023-01-29T05:58:15.121Z,-6.21
2023-01-29T06:00:41.824Z,-6.22
2023-01-29T06:03:08.494Z,-6.41
2023-01-29T06:05:38.160Z,-6.13
2023-01-29T06:08:05.360Z,-6.14
2023-01-29T06:10:32.006Z,-6.25
2023-01-29T06:12:58.818Z,-6.21
2023-01-29T06:15:26.586Z,-6.38
2023-01-29T06:17:57.121Z,-6.50
2023-01-29T06:20:24.671Z,-6.22
2023-01-29T06:22:51.394Z,-6.37
2023-01-29T06:25:18.077Z,-6.59
2023-01-29T06:27:44.818Z,-6.38
2023-01-29T06:30:11.999Z,-6.60
2023-01-29T06:32:38.793Z,-6.36
2023-01-29T06:35:05.964Z,-6.48
2023-01-29T06:37:32.528Z,-6.43
2023-01-29T06:39:59.126Z,-6.36
2023-01-29T06:42:28.016Z,-6.49
2023-01-29T06:44:57.815Z,-6.35
2023-01-29T06:47:24.801Z,-6.40
2023-01-29T06:49:52.150Z,-6.58
2023-01-29T06:52:18.856Z,-6.49
2023-01-29T06:54:47.807Z,-6.45
2023-01-29T06:57:14.417Z,-6.47
2023-01-29T06:59:41.040Z,-6.32
2023-01-29T07:02:07.666Z,-6.21
2023-01-29T07:04:35.501Z,-6.32
2023-01-29T07:07:02.161Z,-6.12
2023-01-29T07:09:28.905Z,-6.00
2023-01-29T07:11:55.561Z,-6.22
2023-01-29T07:14:22.167Z,-5.90
2023-01-29T07:16:48.769Z,-5.99
2023-01-29T07:19:15.524Z,-5.80
2023-01-29T07:21:42.131Z,-6.29
2023-01-29T07:24:09.080Z,-6.00
2023-01-29T07:26:35.746Z,-6.06
2023-01-29T07:29:02.359Z,-6.19
2023-01-29T07:31:29.144Z,-5.87
2023-01-29T07:33:55.996Z,-5.86
2023-01-29T07:36:24.026Z,-6.18
2023-01-29T07:38:51.555Z,-6.01
2023-01-29T07:41:18.263Z,-6.06
2023-01-29T07:43:46.245Z,-5.85
2023-01-29T07:46:13.007Z,-6.11
2023-01-29T07:48:39.691Z,-6.03
2023-01-29T07:51:06.785Z,-5.76
2023-01-29T07:53:33.469Z,-6.15
2023-01-29T07:56:00.089Z,-6.20
2023-01-29T07:58:26.813Z,-6.24
2023-01-29T08:00:53.431Z,-6.02
2023-01-29T08:03:20.787Z,-5.87
2023-01-29T08:05:48.000Z,-6.10
2023-01-29T08:08:15.061Z,-5.67
2023-01-29T08:10:42.053Z,-5.92
2023-01-29T08:13:09.223Z,-5.96
2023-01-29T08:15:38.930Z,-6.33
2023-01-29T08:18:06.093Z,-6.20
2023-01-29T08:20:32.780Z,-6.00
2023-01-29T08:23:01.499Z,-6.04
2023-01-29T08:25:29.225Z,-5.89
2023-01-29T08:28:00.048Z,-6.21
2023-01-29T08:30:28.749Z,-6.19
2023-01-29T08:32:55.569Z,-6.18
2023-01-29T08:35:22.600Z,-6.26
2023-01-29T08:37:59.255Z,-5.88
2023-01-29T08:40:27.333Z,-6.03
2023-01-29T08:43:01.983Z,-5.77
2023-01-29T08:45:30.165Z,-5.87
2023-01-29T08:47:57.136Z,-5.57
2023-01-29T08:50:26.665Z,-5.71
2023-01-29T08:52:58.396Z,-5.26
2023-01-29T08:55:25.790Z,-5.30
2023-01-29T08:57:52.440Z,-5.29
2023-01-29T09:00:19.565Z,-5.22
2023-01-29T09:02:46.478Z,-5.60
2023-01-29T09:05:13.068Z,-5.88
2023-01-29T09:07:39.687Z,-5.53
2023-01-29T09:10:06.950Z,-5.31
2023-01-29T09:12:33.692Z,-5.02
2023-01-29T09:15:00.292Z,-5.33
2023-01-29T09:17:26.888Z,-5.16
2023-01-29T09:19:53.541Z,-5.38
2023-01-29T09:22:20.606Z,-5.07
2023-01-29T09:24:47.287Z,-4.96
2023-01-29T09:27:13.915Z,-5.31
2023-01-29T09:29:40.529Z,-5.08
2023-01-29T09:32:07.422Z,-4.90
2023-01-29T09:34:34.582Z,-4.96
2023-01-29T09:37:01.390Z,-4.79
2023-01-29T09:39:28.054Z,-4.80
2023-01-29T09:42:25.717Z,-4.72
2023-01-29T09:45:01.396Z,-4.69
2023-01-29T09:47:29.822Z,-4.74
2023-01-29T09:50:08.239Z,-5.33
2023-01-29T09:52:58.086Z,-5.19
2023-01-29T09:55:56.072Z,-4.87
2023-01-29T09:58:31.997Z,-5.16
2023-01-29T10:01:20.569Z,-4.81
2023-01-29T10:04:15.608Z,-4.76
2023-01-29T10:06:42.360Z,-5.06
2023-01-29T10:09:24.113Z,-4.96
2023-01-29T10:12:00.190Z,-4.67
2023-01-29T10:15:05.866Z,-4.62
2023-01-29T10:18:02.241Z,-4.78
2023-01-29T10:20:53.633Z,-4.43
2023-01-29T10:23:27.230Z,-4.25
2023-01-29T10:25:54.626Z,-4.68
2023-01-29T10:28:50.866Z,-4.20
2023-01-29T10:31:36.560Z,-4.47
2023-01-29T10:34:05.843Z,-4.17
2023-01-29T10:36:42.730Z,-4.57
2023-01-29T10:39:24.591Z,-4.73
2023-01-29T10:42:22.356Z,-4.65
2023-01-29T10:45:04.035Z,-4.22
2023-01-29T10:47:45.990Z,-4.26
2023-01-29T10:50:41.849Z,-4.33
2023-01-29T10:53:08.388Z,-4.28
2023-01-29T10:56:05.841Z,-4.18
2023-01-29T10:58:48.489Z,-4.02
2023-01-29T11:01:15.514Z,-4.28
2023-01-29T11:03:42.399Z,-4.84
2023-01-29T11:06:31.549Z,-4.17
2023-01-29T11:09:20.077Z,-4.00
2023-01-29T11:11:54.736Z,-4.03
2023-01-29T11:14:29.247Z,-3.75
2023-01-29T11:16:55.972Z,-4.15
2023-01-29T11:19:40.699Z,-3.91
2023-01-29T11:22:15.065Z,-4.26
2023-01-29T11:24:41.956Z,-4.41
2023-01-29T11:27:26.596Z,-4.36
2023-01-29T11:29:53.941Z,-4.40
2023-01-29T11:32:23.684Z,-3.83
2023-01-29T11:35:05.997Z,-4.11
2023-01-29T11:37:41.029Z,-3.67
2023-01-29T11:40:38.093Z,-3.58
2023-01-29T11:43:31.024Z,-3.57
2023-01-29T11:46:05.115Z,-3.62
2023-01-29T11:48:44.905Z,-3.53
2023-01-29T11:51:22.226Z,-3.73
2023-01-29T11:54:01.858Z,-4.05
2023-01-29T11:56:30.066Z,-3.82
2023-01-29T11:58:57.983Z,-4.12
2023-01-29T12:01:36.316Z,-3.82
2023-01-29T12:04:12.850Z,-4.14
2023-01-29T12:06:44.366Z,-3.78
2023-01-29T12:09:17.385Z,-3.66
2023-01-29T12:11:44.351Z,-3.27
2023-01-29T12:14:36.968Z,-3.32
2023-01-29T12:17:15.470Z,-3.31
2023-01-29T12:19:51.902Z,-3.19
2023-01-29T12:22:33.472Z,-3.34
2023-01-29T12:25:12.369Z,-3.17
2023-01-29T12:27:46.809Z,-3.18
2023-01-29T12:30:31.814Z,-2.97
2023-01-29T12:33:13.220Z,-2.71
2023-01-29T12:35:48.138Z,-2.73
2023-01-29T12:38:18.736Z,-2.84
2023-01-29T12:41:00.825Z,-2.90
2023-01-29T12:43:55.521Z,-2.64
2023-01-29T12:46:26.973Z,-3.22
2023-01-29T12:48:57.806Z,-2.61
2023-01-29T12:51:31.331Z,-2.62
2023-01-29T12:54:05.230Z,-2.37
2023-01-29T12:56:41.107Z,-2.64
2023-01-29T12:59:27.426Z,-2.33
2023-01-29T13:02:02.609Z,-2.21
2023-01-29T13:04:40.216Z,-2.22
2023-01-29T13:07:23.662Z,-1.86
2023-01-29T13:09:57.225Z,-2.23
2023-01-29T13:12:24.551Z,-2.08
2023-01-29T13:15:15.708Z,-2.27
2023-01-29T13:17:53.037Z,-2.19
2023-01-29T13:20:27.985Z,-2.08
2023-01-29T13:22:59.231Z,-2.15
2023-01-29T13:25:26.027Z,-2.54
2023-01-29T13:27:53.458Z,-2.05
2023-01-29T13:30:38.411Z,-2.18
2023-01-29T13:33:09.844Z,-2.36
2023-01-29T13:35:42.721Z,-2.40
2023-01-29T13:38:44.972Z,-1.51
2023-01-29T13:41:12.247Z,-1.36
2023-01-29T13:43:42.775Z,-1.36
2023-01-29T13:46:17.803Z,-1.14
2023-01-29T13:48:48.321Z,-1.25
2023-01-29T13:51:20.304Z,-1.34
2023-01-29T13:54:00.706Z,-1.42
2023-01-29T13:56:33.456Z,-1.12
2023-01-29T13:59:02.733Z,-1.04
2023-01-29T14:01:47.596Z,-0.91
2023-01-29T14:04:25.442Z,-0.89
2023-01-29T14:06:54.446Z,-1.02
2023-01-29T14:09:30.494Z,-1.34
2023-01-29T14:11:57.199Z,-1.73
2023-01-29T14:15:19.003Z,-1.63
2023-01-29T14:18:00.581Z,-2.06
2023-01-29T14:20:47.436Z,-1.87
2023-01-29T14:23:54.333Z,-1.83
2023-01-29T14:26:43.821Z,-1.98
2023-01-29T14:29:18.870Z,-1.85
2023-01-29T14:31:53.187Z,-1.85
2023-01-29T14:34:30.933Z,-1.76
2023-01-29T14:37:20.491Z,-1.67
2023-01-29T14:39:51.772Z,-1.66
2023-01-29T14:42:24.981Z,-1.63
2023-01-29T14:44:54.801Z,-1.48
2023-01-29T14:47:28.014Z,-1.64
2023-01-29T14:49:57.265Z,-1.96
2023-01-29T14:52:33.287Z,-1.76
2023-01-29T14:55:03.027Z,-1.81
2023-01-29T14:57:31.077Z,-1.87
2023-01-29T15:00:02.192Z,-2.03
2023-01-29T15:02:42.084Z,-2.09
2023-01-29T15:05:16.838Z,-2.19
2023-01-29T15:08:00.708Z,-1.94
2023-01-29T15:10:45.530Z,-1.99
2023-01-29T15:13:35.733Z,-2.14
2023-01-29T15:16:14.330Z,-2.09
2023-01-29T15:18:42.545Z,-2.00
2023-01-29T15:21:19.708Z,-2.09
2023-01-29T15:23:48.824Z,-2.14
2023-01-29T15:26:21.965Z,-2.15
2023-01-29T15:29:04.282Z,-2.36
2023-01-29T15:31:32.289Z,-2.39
2023-01-29T15:34:06.278Z,-2.40
2023-01-29T15:36:33.444Z,-2.47
2023-01-29T15:39:12.055Z,-2.42
2023-01-29T15:41:38.794Z,-2.69
2023-01-29T15:44:18.974Z,-2.45
2023-01-29T15:47:04.018Z,-2.52
2023-01-29T15:49:35.648Z,-2.74
2023-01-29T15:52:13.523Z,-2.71
2023-01-29T15:54:40.390Z,-2.60
2023-01-29T15:57:19.119Z,-3.00
2023-01-29T15:59:45.887Z,-2.81
2023-01-29T16:02:35.567Z,-2.71
2023-01-29T16:05:03.782Z,-2.75
2023-01-29T16:07:31.560Z,-2.66
2023-01-29T16:09:59.756Z,-2.83
2023-01-29T16:12:27.376Z,-2.81
2023-01-29T16:14:55.278Z,-2.87
2023-01-29T16:17:30.594Z,-2.80
2023-01-29T16:19:59.596Z,-2.82
2023-01-29T16:22:31.357Z,-2.88
2023-01-29T16:25:02.614Z,-2.89
2023-01-29T16:27:31.094Z,-3.12
2023-01-29T16:29:57.901Z,-3.05
2023-01-29T16:32:24.691Z,-3.15
2023-01-29T16:34:57.505Z,-3.43
2023-01-29T16:37:28.563Z,-3.38
2023-01-29T16:39:55.946Z,-3.27
2023-01-29T16:42:24.419Z,-3.31
2023-01-29T16:44:54.688Z,-3.41
2023-01-29T16:47:30.547Z,-3.25
2023-01-29T16:50:00.775Z,-3.38
2023-01-29T16:52:30.903Z,-3.33
2023-01-29T16:55:12.827Z,-3.25
2023-01-29T16:57:40.987Z,-3.29
2023-01-29T17:00:18.794Z,-3.59
2023-01-29T17:02:45.583Z,-3.33
2023-01-29T17:05:22.484Z,-3.48
2023-01-29T17:07:49.651Z,-3.51
2023-01-29T17:10:20.360Z,-3.72
2023-01-29T17:13:04.119Z,-3.74
2023-01-29T17:15:45.602Z,-3.66
2023-01-29T17:18:23.140Z,-3.76
2023-01-29T17:20:50.883Z,-3.88
2023-01-29T17:23:17.679Z,-3.95
2023-01-29T17:25:45.500Z,-4.05
2023-01-29T17:28:14.273Z,-3.96
2023-01-29T17:30:41.094Z,-4.17
2023-01-29T17:33:16.695Z,-4.20
2023-01-29T17:35:45.246Z,-4.16
2023-01-29T17:38:25.562Z,-4.32
2023-01-29T17:40:59.559Z,-4.34
2023-01-29T17:43:26.406Z,-4.40
2023-01-29T17:45:53.399Z,-4.28
2023-01-29T17:48:24.841Z,-4.26
2023-01-29T17:50:54.184Z,-4.48
2023-01-29T17:53:23.596Z,-4.50
2023-01-29T17:55:50.770Z,-4.39
2023-01-29T17:58:24.295Z,-4.59
2023-01-29T18:00:51.633Z,-4.77
2023-01-29T18:03:18.305Z,-4.62
2023-01-29T18:05:46.645Z,-4.80
2023-01-29T18:08:24.957Z,-4.76
2023-01-29T18:10:51.562Z,-5.01
2023-01-29T18:13:18.156Z,-5.14
2023-01-29T18:15:44.972Z,-5.22
2023-01-29T18:18:22.699Z,-4.87
2023-01-29T18:20:49.874Z,-4.93
2023-01-29T18:23:16.789Z,-4.87
2023-01-29T18:25:44.026Z,-5.13
2023-01-29T18:28:15.802Z,-5.42
2023-01-29T18:30:44.214Z,-5.06
2023-01-29T18:33:11.020Z,-5.01
2023-01-29T18:35:37.877Z,-5.10
2023-01-29T18:38:04.702Z,-4.96
2023-01-29T18:40:32.371Z,-5.12
2023-01-29T18:43:01.905Z,-5.24
2023-01-29T18:45:29.012Z,-5.37
2023-01-29T18:47:56.335Z,-5.15
2023-01-29T18:50:24.990Z,-5.28
2023-01-29T18:52:52.608Z,-5.32
2023-01-29T18:55:19.546Z,-5.36
2023-01-29T18:58:26.349Z,-5.39
2023-01-29T19:00:33.001Z,-5.14
2023-01-29T19:02:59.711Z,-5.11
2023-01-29T19:05:26.401Z,-5.16
2023-01-29T19:07:53.065Z,-5.53
2023-01-29T19:10:20.055Z,-5.24
2023-01-29T19:12:47.711Z,-5.71
2023-01-29T19:15:14.783Z,-6.09
2023-01-29T19:17:41.591Z,-6.04
2023-01-29T19:20:09.607Z,-6.08
2023-01-29T19:22:36.309Z,-6.04
2023-01-29T19:25:02.914Z,-5.85
2023-01-29T19:27:30.576Z,-5.93
2023-01-29T19:29:59.531Z,-5.97
2023-01-29T19:32:28.875Z,-6.16
2023-01-29T19:34:55.756Z,-5.86
2023-01-29T19:37:22.423Z,-5.81
2023-01-29T19:39:49.064Z,-5.92
2023-01-29T19:42:16.002Z,-5.71
2023-01-29T19:44:42.807Z,-5.60
2023-01-29T19:47:09.403Z,-5.65
2023-01-29T19:49:36.109Z,-5.82
2023-01-29T19:52:03.131Z,-5.60
2023-01-29T19:54:30.335Z,-5.67
2023-01-29T19:56:56.946Z,-5.87
2023-01-29T19:59:23.686Z,-5.85
2023-01-29T20:01:50.677Z,-5.80
2023-01-29T20:04:17.488Z,-5.93
2023-01-29T20:06:44.612Z,-6.11
2023-01-29T20:09:11.299Z,-6.17
2023-01-29T20:11:37.919Z,-6.38
2023-01-29T20:14:04.595Z,-6.40
2023-01-29T20:16:31.348Z,-6.22
2023-01-29T20:19:13.354Z,-6.54
2023-01-29T20:21:41.865Z,-6.44
2023-01-29T20:24:12.385Z,-6.24
2023-01-29T20:26:39.184Z,-6.34
2023-01-29T20:29:06.554Z,-6.26
2023-01-29T20:31:33.626Z,-6.46
2023-01-29T20:34:00.460Z,-6.37
2023-01-29T20:36:27.163Z,-6.48
2023-01-29T20:38:53.858Z,-6.39
2023-01-29T20:41:21.380Z,-6.60
2023-01-29T20:43:50.439Z,-6.61
2023-01-29T20:46:17.634Z,-6.45
2023-01-29T20:48:44.574Z,-6.63
2023-01-29T20:51:16.803Z,-6.48
2023-01-29T20:53:45.992Z,-6.59
2023-01-29T20:56:14.976Z,-6.60
2023-01-29T20:58:42.087Z,-6.35
2023-01-29T21:01:15.492Z,-6.46
2023-01-29T21:03:42.635Z,-6.47
2023-01-29T21:06:11.357Z,-6.60
2023-01-29T21:08:38.779Z,-6.41
2023-01-29T21:11:06.948Z,-6.63
2023-01-29T21:13:33.840Z,-6.57
2023-01-29T21:16:00.582Z,-6.51
2023-01-29T21:18:27.279Z,-6.43
2023-01-29T21:20:54.636Z,-6.52
2023-01-29T21:23:22.196Z,-6.83
2023-01-29T21:25:48.824Z,-7.07
2023-01-29T21:28:16.034Z,-7.25
2023-01-29T21:30:42.842Z,-7.04
2023-01-29T21:33:10.036Z,-6.93
2023-01-29T21:35:37.824Z,-6.95
2023-01-29T21:38:04.597Z,-7.04
2023-01-29T21:40:31.349Z,-6.80
2023-01-29T21:43:13.355Z,-7.03
2023-01-29T21:45:40.713Z,-6.81
2023-01-29T21:48:08.116Z,-7.11
2023-01-29T21:50:35.172Z,-7.26
2023-01-29T21:53:02.103Z,-6.68
2023-01-29T21:55:29.111Z,-6.68
2023-01-29T21:57:56.049Z,-6.81
2023-01-29T22:00:22.801Z,-6.74
2023-01-29T22:02:50.214Z,-6.85
2023-01-29T22:05:19.736Z,-6.91
2023-01-29T22:07:48.003Z,-7.16
2023-01-29T22:10:16.271Z,-6.97
2023-01-29T22:12:44.764Z,-6.85
2023-01-29T22:15:12.515Z,-6.65
2023-01-29T22:17:41.312Z,-6.62
2023-01-29T22:20:13.037Z,-6.52
2023-01-29T22:22:39.875Z,-6.56
2023-01-29T22:25:07.074Z,-6.58
2023-01-29T22:27:35.833Z,-6.52
2023-01-29T22:30:03.597Z,-6.35
2023-01-29T22:32:32.358Z,-6.28
2023-01-29T22:34:59.007Z,-6.40
2023-01-29T22:37:25.675Z,-6.39
2023-01-29T22:39:52.360Z,-6.92
2023-01-29T22:42:20.776Z,-6.25
2023-01-29T22:44:48.295Z,-6.29
2023-01-29T22:47:15.263Z,-6.33
2023-01-29T22:49:41.896Z,-6.13
2023-01-29T22:52:11.516Z,-6.28
2023-01-29T22:54:43.134Z,-6.26
2023-01-29T22:57:14.778Z,-6.29
2023-01-29T22:59:41.616Z,-6.55
2023-01-29T23:02:08.934Z,-6.42
2023-01-29T23:04:37.851Z,-6.77
2023-01-29T23:07:04.636Z,-6.50
2023-01-29T23:09:31.317Z,-6.53
2023-01-29T23:11:58.010Z,-6.71
2023-01-29T23:14:24.630Z,-6.48
2023-01-29T23:16:51.231Z,-6.66
2023-01-29T23:19:17.941Z,-6.45
2023-01-29T23:21:44.578Z,-6.78
2023-01-29T23:24:11.538Z,-6.58
2023-01-29T23:26:56.905Z,-7.10
2023-01-29T23:29:23.582Z,-6.75
2023-01-29T23:31:50.245Z,-6.51
2023-01-29T23:34:17.082Z,-6.60
2023-01-29T23:36:43.840Z,-6.58
2023-01-29T23:39:11.114Z,-6.47
2023-01-29T23:41:37.724Z,-6.65
2023-01-29T23:44:04.528Z,-6.48
2023-01-29T23:46:31.912Z,-6.40
2023-01-29T23:48:58.843Z,-6.60
2023-01-29T23:51:25.684Z,-6.68
2023-01-29T23:53:52.412Z,-6.53
2023-01-29T23:56:19.293Z,-6.42
2023-01-29T23:58:46.238Z,-6.49
